createdAt,value
2017-01-26T00:02:01.100Z,964.64
2017-01-26T00:04:13.483Z,964.7
2017-01-26T00:06:25.832Z,964.67
2017-01-26T00:08:38.089Z,964.71
2017-01-26T00:10:50.399Z,964.7
2017-01-26T00:12:57.833Z,964.74
2017-01-26T00:15:10.207Z,964.77
2017-01-26T00:17:22.822Z,964.78
2017-01-26T00:19:35.007Z,964.74
2017-01-26T00:21:47.792Z,964.75
2017-01-26T00:24:00.758Z,964.81
2017-01-26T00:26:12.930Z,964.77
2017-01-26T00:28:25.246Z,964.85
2017-01-26T00:30:37.679Z,964.89
2017-01-26T00:32:49.877Z,964.93
2017-01-26T00:35:02.176Z,964.9
2017-01-26T00:37:14.550Z,964.93
2017-01-26T00:39:26.990Z,964.87
2017-01-26T00:41:39.217Z,964.86
2017-01-26T00:43:51.505Z,964.86
2017-01-26T00:46:03.958Z,964.78
2017-01-26T00:48:16.291Z,964.77
2017-01-26T00:50:28.506Z,964.79
2017-01-26T00:52:41.008Z,964.74
2017-01-26T00:54:53.381Z,964.7
2017-01-26T00:57:06.188Z,964.71
2017-01-26T00:59:18.678Z,964.77
2017-01-26T01:01:25.931Z,964.7
2017-01-26T01:03:38.171Z,964.66
2017-01-26T01:05:50.553Z,964.69
2017-01-26T01:08:02.903Z,964.61
2017-01-26T01:10:15.108Z,964.63
2017-01-26T01:12:27.348Z,964.72
2017-01-26T01:14:39.536Z,964.68
2017-01-26T01:16:51.938Z,964.75
2017-01-26T01:19:04.200Z,964.68
2017-01-26T01:21:16.375Z,964.7
2017-01-26T01:23:28.793Z,964.71
2017-01-26T01:25:40.972Z,964.72
2017-01-26T01:27:53.218Z,964.77
2017-01-26T01:30:05.638Z,964.78
2017-01-26T01:32:13.755Z,964.78
2017-01-26T01:34:26.120Z,964.74
2017-01-26T01:36:38.385Z,964.72
2017-01-26T01:38:50.908Z,964.66
2017-01-26T01:40:58.344Z,964.72
2017-01-26T01:43:05.627Z,964.7
2017-01-26T01:45:18.007Z,964.74
2017-01-26T01:47:30.237Z,964.67
2017-01-26T01:49:37.504Z,964.68
2017-01-26T01:51:49.811Z,964.69
2017-01-26T01:54:03.014Z,964.69
2017-01-26T01:56:15.305Z,964.7
2017-01-26T01:58:27.592Z,964.66
2017-01-26T02:00:39.945Z,964.66
2017-01-26T02:02:52.473Z,964.63
2017-01-26T02:05:05.260Z,964.62
2017-01-26T02:07:13.096Z,964.58
2017-01-26T02:09:25.260Z,964.58
2017-01-26T02:11:37.440Z,964.52
2017-01-26T02:13:49.811Z,964.56
2017-01-26T02:16:02.107Z,964.52
2017-01-26T02:18:14.451Z,964.56
2017-01-26T02:20:21.657Z,964.55
2017-01-26T02:22:33.990Z,964.55
2017-01-26T02:24:41.454Z,964.47
2017-01-26T02:26:53.600Z,964.44
2017-01-26T02:29:05.905Z,964.45
2017-01-26T02:31:18.276Z,964.44
2017-01-26T02:33:30.544Z,964.42
2017-01-26T02:35:42.969Z,964.46
2017-01-26T02:37:55.559Z,964.48
2017-01-26T02:40:03.574Z,964.5
2017-01-26T02:42:16.127Z,964.5
2017-01-26T02:44:28.484Z,964.52
2017-01-26T02:46:40.772Z,964.51
2017-01-26T02:48:48.175Z,964.51
2017-01-26T02:51:00.385Z,964.49
2017-01-26T02:53:12.643Z,964.48
2017-01-26T02:55:25.033Z,964.43
2017-01-26T02:57:37.389Z,964.47
2017-01-26T02:59:45.178Z,964.43
2017-01-26T03:01:57.375Z,964.38
2017-01-26T03:04:09.700Z,964.43
2017-01-26T03:06:22.002Z,964.42
2017-01-26T03:08:35.346Z,964.42
2017-01-26T03:10:47.531Z,964.43
2017-01-26T03:12:59.826Z,964.42
2017-01-26T03:15:07.272Z,964.43
2017-01-26T03:17:14.900Z,964.45
2017-01-26T03:19:27.347Z,964.46
2017-01-26T03:21:39.695Z,964.44
2017-01-26T03:23:52.099Z,964.49
2017-01-26T03:26:08.316Z,964.44
2017-01-26T03:28:20.472Z,964.45
2017-01-26T03:30:32.844Z,964.44
2017-01-26T03:32:47.807Z,964.37
2017-01-26T03:35:02.911Z,964.44
2017-01-26T03:37:15.161Z,964.39
2017-01-26T03:39:27.324Z,964.37
2017-01-26T03:41:39.593Z,964.31
2017-01-26T03:43:51.767Z,964.28
2017-01-26T03:46:04.055Z,964.27
2017-01-26T03:48:06.531Z,964.21
2017-01-26T03:50:19.046Z,964.2
2017-01-26T03:52:27.165Z,964.16
2017-01-26T03:54:39.571Z,964.17
2017-01-26T03:56:51.960Z,964.18
2017-01-26T03:59:04.151Z,964.15
2017-01-26T04:01:16.309Z,964.16
2017-01-26T04:03:19.590Z,964.12
2017-01-26T04:05:31.905Z,964.12
2017-01-26T04:07:44.547Z,964.15
2017-01-26T04:09:51.908Z,964.18
2017-01-26T04:12:04.263Z,964.14
2017-01-26T04:14:16.507Z,964.12
2017-01-26T04:16:28.746Z,964.07
2017-01-26T04:18:42.036Z,964.11
2017-01-26T04:20:49.918Z,964.11
2017-01-26T04:23:02.125Z,964.14
2017-01-26T04:25:14.868Z,964.13
2017-01-26T04:27:27.641Z,964.17
2017-01-26T04:29:40.152Z,964.17
2017-01-26T04:31:52.509Z,964.13
2017-01-26T04:34:04.878Z,964.11
2017-01-26T04:36:12.231Z,964.14
2017-01-26T04:38:24.744Z,964.14
2017-01-26T04:40:37.214Z,964.2
2017-01-26T04:42:49.446Z,964.18
2017-01-26T04:45:01.744Z,964.17
2017-01-26T04:47:14.070Z,964.16
2017-01-26T04:49:27.403Z,964.17
2017-01-26T04:51:34.674Z,964.15
2017-01-26T04:53:47.082Z,964.17
2017-01-26T04:55:59.299Z,964.13
2017-01-26T04:58:11.594Z,964.16
2017-01-26T05:00:19.194Z,964.13
2017-01-26T05:02:31.936Z,964.17
2017-01-26T05:04:44.469Z,964.12
2017-01-26T05:06:56.873Z,964.14
2017-01-26T05:09:04.209Z,964.11
2017-01-26T05:11:16.548Z,964.04
2017-01-26T05:13:28.835Z,964.06
2017-01-26T05:15:41.234Z,964.02
2017-01-26T05:17:53.568Z,964.01
2017-01-26T05:20:05.820Z,964
2017-01-26T05:22:18.110Z,964.05
2017-01-26T05:24:30.331Z,963.98
2017-01-26T05:26:37.641Z,963.97
2017-01-26T05:28:50.017Z,963.95
2017-01-26T05:31:02.258Z,963.89
2017-01-26T05:33:04.766Z,963.87
2017-01-26T05:35:12.352Z,963.82
2017-01-26T05:37:25.390Z,963.81
2017-01-26T05:39:37.939Z,963.79
2017-01-26T05:41:50.547Z,963.8
2017-01-26T05:44:02.946Z,963.77
2017-01-26T05:46:15.424Z,963.76
2017-01-26T05:48:27.743Z,963.73
2017-01-26T05:50:40.057Z,963.76
2017-01-26T05:52:52.393Z,963.83
2017-01-26T05:55:04.622Z,963.82
2017-01-26T05:57:16.868Z,963.82
2017-01-26T05:59:29.246Z,963.78
2017-01-26T06:01:41.425Z,963.79
2017-01-26T06:03:43.934Z,963.82
2017-01-26T06:05:56.519Z,963.75
2017-01-26T06:08:03.986Z,963.68
2017-01-26T06:10:17.489Z,963.68
2017-01-26T06:12:30.193Z,963.68
2017-01-26T06:14:38.457Z,963.75
2017-01-26T06:16:50.642Z,963.74
2017-01-26T06:19:02.945Z,963.71
2017-01-26T06:21:10.317Z,963.7
2017-01-26T06:23:22.567Z,963.66
2017-01-26T06:25:34.939Z,963.65
2017-01-26T06:27:47.194Z,963.59
2017-01-26T06:30:00.547Z,963.62
2017-01-26T06:32:12.909Z,963.57
2017-01-26T06:34:25.177Z,963.52
2017-01-26T06:36:32.663Z,963.55
2017-01-26T06:38:40.037Z,963.55
2017-01-26T06:40:59.798Z,963.51
2017-01-26T06:43:12.214Z,963.49
2017-01-26T06:45:24.775Z,963.49
2017-01-26T06:47:37.508Z,963.5
2017-01-26T06:49:45.129Z,963.54
2017-01-26T06:51:57.591Z,963.54
2017-01-26T06:54:09.891Z,963.52
2017-01-26T06:56:22.114Z,963.55
2017-01-26T06:58:29.913Z,963.53
2017-01-26T07:00:42.100Z,963.53
2017-01-26T07:02:54.455Z,963.52
2017-01-26T07:05:06.749Z,963.52
2017-01-26T07:07:19.224Z,963.52
2017-01-26T07:09:31.582Z,963.51
2017-01-26T07:11:44.908Z,963.53
2017-01-26T07:13:57.268Z,963.51
2017-01-26T07:16:09.616Z,963.51
2017-01-26T07:18:17.048Z,963.46
2017-01-26T07:20:24.995Z,963.45
2017-01-26T07:22:32.979Z,963.47
2017-01-26T07:24:45.337Z,963.4
2017-01-26T07:26:57.746Z,963.39
2017-01-26T07:29:10.090Z,963.42
2017-01-26T07:31:22.372Z,963.42
2017-01-26T07:33:34.654Z,963.38
2017-01-26T07:35:47.427Z,963.37
2017-01-26T07:37:59.737Z,963.35
2017-01-26T07:40:12.105Z,963.33
2017-01-26T07:42:24.450Z,963.31
2017-01-26T07:44:36.951Z,963.31
2017-01-26T07:46:49.377Z,963.29
2017-01-26T07:49:01.700Z,963.33
2017-01-26T07:51:09.247Z,963.33
2017-01-26T07:53:21.502Z,963.25
2017-01-26T07:55:33.940Z,963.2
2017-01-26T07:57:47.111Z,963.17
2017-01-26T07:59:59.623Z,963.21
2017-01-26T08:02:06.981Z,963.12
2017-01-26T08:04:14.384Z,963.18
2017-01-26T08:06:26.888Z,963.16
2017-01-26T08:08:39.353Z,963.18
2017-01-26T08:10:51.535Z,963.18
2017-01-26T08:12:58.910Z,963.18
2017-01-26T08:15:11.342Z,963.18
2017-01-26T08:17:19.953Z,963.26
2017-01-26T08:19:32.372Z,963.24
2017-01-26T08:21:53.580Z,963.28
2017-01-26T08:24:08.701Z,963.25
2017-01-26T08:26:20.956Z,963.23
2017-01-26T08:28:33.188Z,963.18
2017-01-26T08:30:35.984Z,963.18
2017-01-26T08:32:48.928Z,963.21
2017-01-26T08:35:01.117Z,963.22
2017-01-26T08:37:13.612Z,963.21
2017-01-26T08:39:20.939Z,963.18
2017-01-26T08:41:23.245Z,963.12
2017-01-26T08:43:35.530Z,963.16
2017-01-26T08:45:47.687Z,963.14
2017-01-26T08:48:00.178Z,963.16
2017-01-26T08:50:12.376Z,963.15
2017-01-26T08:52:24.589Z,963.19
2017-01-26T08:54:37.028Z,963.21
2017-01-26T08:56:44.433Z,963.22
2017-01-26T08:58:51.920Z,963.23
2017-01-26T09:01:04.331Z,963.22
2017-01-26T09:03:16.736Z,963.22
2017-01-26T09:05:29.164Z,963.18
2017-01-26T09:07:41.572Z,963.23
2017-01-26T09:09:55.744Z,963.23
2017-01-26T09:12:08.099Z,963.2
2017-01-26T09:14:20.563Z,963.27
2017-01-26T09:16:32.926Z,963.25
2017-01-26T09:18:45.164Z,963.27
2017-01-26T09:20:57.581Z,963.2
2017-01-26T09:23:10.025Z,963.15
2017-01-26T09:25:22.353Z,963.17
2017-01-26T09:27:34.729Z,963.12
2017-01-26T09:29:42.284Z,963.13
2017-01-26T09:31:54.703Z,963.13
2017-01-26T09:34:07.041Z,963.1
2017-01-26T09:36:19.416Z,963.1
2017-01-26T09:38:31.803Z,963.05
2017-01-26T09:40:44.227Z,963.02
2017-01-26T09:42:56.539Z,963
2017-01-26T09:45:09.108Z,963.01
2017-01-26T09:47:16.540Z,963.02
2017-01-26T09:49:23.816Z,962.99
2017-01-26T09:51:36.150Z,962.98
2017-01-26T09:53:48.523Z,962.98
2017-01-26T09:56:01.046Z,963.01
2017-01-26T09:58:13.635Z,963
2017-01-26T10:00:26.031Z,963.06
2017-01-26T10:02:38.268Z,963.05
2017-01-26T10:04:46.540Z,963.01
2017-01-26T10:06:53.717Z,963.05
2017-01-26T10:09:06.053Z,963.08
2017-01-26T10:11:18.435Z,963.07
2017-01-26T10:13:25.868Z,963.04
2017-01-26T10:15:38.360Z,963.06
2017-01-26T10:17:50.992Z,963.11
2017-01-26T10:19:59.520Z,963.07
2017-01-26T10:22:11.888Z,963.05
2017-01-26T10:24:14.370Z,963.03
2017-01-26T10:26:21.772Z,963.03
2017-01-26T10:28:34.041Z,962.97
2017-01-26T10:30:47.334Z,962.92
2017-01-26T10:32:54.693Z,962.83
2017-01-26T10:35:06.888Z,962.82
2017-01-26T10:37:09.346Z,962.81
2017-01-26T10:39:21.709Z,962.79
2017-01-26T10:41:34.122Z,962.79
2017-01-26T10:43:46.440Z,962.79
2017-01-26T10:45:58.803Z,962.71
2017-01-26T10:48:11.043Z,962.65
2017-01-26T10:50:23.371Z,962.68
2017-01-26T10:52:36.350Z,962.65
2017-01-26T10:54:48.739Z,962.68
2017-01-26T10:56:55.972Z,962.68
2017-01-26T10:59:08.237Z,962.65
2017-01-26T11:01:20.463Z,962.64
2017-01-26T11:03:32.634Z,962.64
2017-01-26T11:05:40.034Z,962.6
2017-01-26T11:07:47.379Z,962.57
2017-01-26T11:09:59.768Z,962.54
2017-01-26T11:12:11.998Z,962.55
2017-01-26T11:14:24.253Z,962.51
2017-01-26T11:16:36.512Z,962.52
2017-01-26T11:18:48.765Z,962.47
2017-01-26T11:21:01.123Z,962.47
2017-01-26T11:23:13.425Z,962.43
2017-01-26T11:25:25.651Z,962.44
2017-01-26T11:27:38.593Z,962.42
2017-01-26T11:29:51.273Z,962.42
2017-01-26T11:32:03.720Z,962.33
2017-01-26T11:34:10.896Z,962.3
2017-01-26T11:36:18.181Z,962.31
2017-01-26T11:38:20.492Z,962.29
2017-01-26T11:40:27.847Z,962.25
2017-01-26T11:42:40.322Z,962.24
2017-01-26T11:44:47.639Z,962.24
2017-01-26T11:47:00.042Z,962.14
2017-01-26T11:49:12.207Z,962.12
2017-01-26T11:51:24.466Z,962.11
2017-01-26T11:53:36.924Z,962.1
2017-01-26T11:55:49.348Z,962.09
2017-01-26T11:58:01.751Z,962.09
2017-01-26T12:00:14.166Z,962.07
2017-01-26T12:02:27.523Z,962.07
2017-01-26T12:04:39.901Z,962.05
2017-01-26T12:06:52.174Z,962.01
2017-01-26T12:08:59.646Z,961.97
2017-01-26T12:11:12.021Z,961.91
2017-01-26T12:13:14.506Z,961.9
2017-01-26T12:15:21.965Z,961.85
2017-01-26T12:17:29.440Z,961.84
2017-01-26T12:19:41.886Z,961.85
2017-01-26T12:21:55.311Z,961.84
2017-01-26T12:24:02.908Z,961.81
2017-01-26T12:26:15.462Z,961.74
2017-01-26T12:28:28.334Z,961.77
2017-01-26T12:30:35.829Z,961.79
2017-01-26T12:32:48.359Z,961.64
2017-01-26T12:35:01.093Z,961.57
2017-01-26T12:37:13.928Z,961.56
2017-01-26T12:39:26.385Z,961.54
2017-01-26T12:41:33.835Z,961.56
2017-01-26T12:43:46.133Z,961.53
2017-01-26T12:45:53.531Z,961.57
2017-01-26T12:48:05.819Z,961.61
2017-01-26T12:50:18.202Z,961.62
2017-01-26T12:52:25.543Z,961.62
2017-01-26T12:54:38.298Z,961.59
2017-01-26T12:56:50.828Z,961.68
2017-01-26T12:58:58.330Z,961.69
2017-01-26T13:01:10.677Z,961.67
2017-01-26T13:03:22.960Z,961.58
2017-01-26T13:05:30.489Z,961.58
2017-01-26T13:07:37.962Z,961.56
2017-01-26T13:09:50.588Z,961.58
2017-01-26T13:12:03.293Z,961.51
2017-01-26T13:14:15.795Z,961.47
2017-01-26T13:16:28.258Z,961.45
2017-01-26T13:18:41.082Z,961.34
2017-01-26T13:20:54.235Z,961.33
2017-01-26T13:23:06.479Z,961.25
2017-01-26T13:25:13.792Z,961.24
2017-01-26T13:27:26.177Z,961.24
2017-01-26T13:29:38.585Z,961.19
2017-01-26T13:31:51.220Z,961.22
2017-01-26T13:33:58.962Z,961.21
2017-01-26T13:36:13.577Z,961.21
2017-01-26T13:38:27.530Z,961.15
2017-01-26T13:40:40.307Z,961.22
2017-01-26T13:42:52.726Z,961.1
2017-01-26T13:45:05.058Z,961.16
2017-01-26T13:47:17.807Z,961.08
2017-01-26T13:49:30.268Z,961.12
2017-01-26T13:51:42.479Z,961.11
2017-01-26T13:53:54.904Z,961.13
2017-01-26T13:56:07.145Z,961.17
2017-01-26T13:58:19.892Z,961.19
2017-01-26T14:00:32.094Z,961.16
2017-01-26T14:02:44.663Z,961.1
2017-01-26T14:04:56.903Z,961.14
2017-01-26T14:07:09.241Z,961.06
2017-01-26T14:09:11.592Z,961.1
2017-01-26T14:11:13.834Z,961.09
2017-01-26T14:13:26.075Z,961.14
2017-01-26T14:15:38.392Z,961.09
2017-01-26T14:17:50.593Z,961.09
2017-01-26T14:19:58.075Z,961.15
2017-01-26T14:22:10.890Z,961.14
2017-01-26T14:24:23.351Z,961.16
2017-01-26T14:26:35.635Z,961.14
2017-01-26T14:28:48.031Z,961.18
2017-01-26T14:31:00.501Z,961.15
2017-01-26T14:33:07.865Z,961.12
2017-01-26T14:35:20.119Z,961.06
2017-01-26T14:37:27.636Z,961.06
2017-01-26T14:39:39.869Z,961.11
2017-01-26T14:41:47.355Z,961.13
2017-01-26T14:43:59.892Z,961.14
2017-01-26T14:46:07.269Z,961.09
2017-01-26T14:48:19.581Z,961.16
2017-01-26T14:50:31.851Z,961.14
2017-01-26T14:52:39.336Z,961.17
2017-01-26T14:54:46.698Z,961.15
2017-01-26T14:56:59.239Z,961.17
2017-01-26T14:59:11.904Z,961.17
2017-01-26T15:01:19.337Z,961.22
2017-01-26T15:03:31.759Z,961.31
2017-01-26T15:05:44.277Z,961.28
2017-01-26T15:07:56.577Z,961.23
2017-01-26T15:10:09.001Z,961.21
2017-01-26T15:12:16.404Z,961.18
2017-01-26T15:14:23.661Z,961.16
2017-01-26T15:16:31.024Z,961.2
2017-01-26T15:18:43.511Z,961.24
2017-01-26T15:20:56.349Z,961.29
2017-01-26T15:23:09.262Z,961.28
2017-01-26T15:25:24.980Z,961.26
2017-01-26T15:27:37.589Z,961.25
2017-01-26T15:29:54.479Z,961.2
2017-01-26T15:32:07.462Z,961.19
2017-01-26T15:34:20.489Z,961.2
2017-01-26T15:36:34.480Z,961.15
2017-01-26T15:38:51.514Z,961.19
2017-01-26T15:41:09.945Z,961.19
2017-01-26T15:43:23.046Z,961.24
2017-01-26T15:45:30.385Z,961.2
2017-01-26T15:47:43.771Z,961.19
2017-01-26T15:49:51.407Z,961.25
2017-01-26T15:52:04.979Z,961.25
2017-01-26T15:54:18.124Z,961.25
2017-01-26T15:56:30.451Z,961.29
2017-01-26T15:58:42.937Z,961.3
2017-01-26T16:00:55.239Z,961.28
2017-01-26T16:03:08.166Z,961.32
2017-01-26T16:05:25.516Z,961.33
2017-01-26T16:07:50.545Z,961.33
2017-01-26T16:10:30.772Z,961.32
2017-01-26T16:13:06.294Z,961.32
2017-01-26T16:15:47.952Z,961.36
2017-01-26T16:18:26.465Z,961.41
2017-01-26T16:21:06.431Z,961.43
2017-01-26T16:23:41.269Z,961.42
2017-01-26T16:26:23.138Z,961.41
2017-01-26T16:29:07.286Z,961.45
2017-01-26T16:31:44.867Z,961.38
2017-01-26T16:34:30.848Z,961.4
2017-01-26T16:37:17.117Z,961.41
2017-01-26T16:40:04.028Z,961.39
2017-01-26T16:42:55.114Z,961.42
2017-01-26T16:45:40.929Z,961.41
2017-01-26T16:48:14.818Z,961.42
2017-01-26T16:50:43.812Z,961.47
2017-01-26T16:53:34.402Z,961.47
2017-01-26T16:56:24.060Z,961.53
2017-01-26T16:59:10.170Z,961.5
2017-01-26T17:02:01.358Z,961.52
2017-01-26T17:04:27.801Z,961.5
2017-01-26T17:06:40.188Z,961.54
2017-01-26T17:08:52.609Z,961.52
2017-01-26T17:11:04.910Z,961.44
2017-01-26T17:13:17.167Z,961.45
2017-01-26T17:15:29.544Z,961.49
2017-01-26T17:17:36.954Z,961.48
2017-01-26T17:19:49.166Z,961.42
2017-01-26T17:22:01.543Z,961.44
2017-01-26T17:24:14.000Z,961.36
2017-01-26T17:26:26.391Z,961.36
2017-01-26T17:28:33.846Z,961.4
2017-01-26T17:30:41.314Z,961.42
2017-01-26T17:32:53.618Z,961.42
2017-01-26T17:35:06.025Z,961.43
2017-01-26T17:37:18.628Z,961.41
2017-01-26T17:39:31.275Z,961.4
2017-01-26T17:41:38.676Z,961.38
2017-01-26T17:43:46.022Z,961.43
2017-01-26T17:45:58.487Z,961.44
2017-01-26T17:48:05.749Z,961.44
2017-01-26T17:50:18.051Z,961.41
2017-01-26T17:52:30.494Z,961.38
2017-01-26T17:54:42.900Z,961.4
2017-01-26T17:56:45.344Z,961.4
2017-01-26T17:58:59.323Z,961.41
2017-01-26T18:01:06.832Z,961.38
2017-01-26T18:03:19.188Z,961.38
2017-01-26T18:05:31.525Z,961.38
2017-01-26T18:07:44.046Z,961.39
2017-01-26T18:09:56.475Z,961.35
2017-01-26T18:12:08.936Z,961.39
2017-01-26T18:14:21.287Z,961.4
2017-01-26T18:16:33.595Z,961.34
2017-01-26T18:18:45.933Z,961.35
2017-01-26T18:20:59.043Z,961.38
2017-01-26T18:23:12.901Z,961.33
2017-01-26T18:25:25.481Z,961.37
2017-01-26T18:27:37.960Z,961.31
2017-01-26T18:29:50.507Z,961.28
2017-01-26T18:32:04.264Z,961.29
2017-01-26T18:34:17.399Z,961.29
2017-01-26T18:36:25.349Z,961.23
2017-01-26T18:38:38.321Z,961.27
2017-01-26T18:40:47.120Z,961.22
2017-01-26T18:42:59.770Z,961.22
2017-01-26T18:45:07.943Z,961.23
2017-01-26T18:47:12.681Z,961.26
2017-01-26T18:49:21.460Z,961.3
2017-01-26T18:51:33.824Z,961.34
2017-01-26T18:53:46.294Z,961.34
2017-01-26T18:55:59.891Z,961.27
2017-01-26T18:58:12.891Z,961.23
2017-01-26T19:00:26.376Z,961.22
2017-01-26T19:02:38.734Z,961.23
2017-01-26T19:04:51.476Z,961.21
2017-01-26T19:07:04.930Z,961.2
2017-01-26T19:09:12.508Z,961.29
2017-01-26T19:11:24.724Z,961.28
2017-01-26T19:13:37.184Z,961.27
2017-01-26T19:15:49.536Z,961.29
2017-01-26T19:18:02.108Z,961.3
2017-01-26T19:20:14.546Z,961.35
2017-01-26T19:22:26.850Z,961.34
2017-01-26T19:24:39.759Z,961.31
2017-01-26T19:26:53.057Z,961.34
2017-01-26T19:29:05.725Z,961.26
2017-01-26T19:31:18.129Z,961.31
2017-01-26T19:33:32.608Z,961.34
2017-01-26T19:35:45.595Z,961.37
2017-01-26T19:37:55.551Z,961.36
2017-01-26T19:40:08.066Z,961.33
2017-01-26T19:42:20.985Z,961.36
2017-01-26T19:44:33.810Z,961.34
2017-01-26T19:46:46.168Z,961.27
2017-01-26T19:48:58.467Z,961.29
2017-01-26T19:51:10.677Z,961.27
2017-01-26T19:53:22.906Z,961.27
2017-01-26T19:55:30.242Z,961.28
2017-01-26T19:57:45.353Z,961.27
2017-01-26T19:59:58.511Z,961.26
2017-01-26T20:02:10.949Z,961.27
2017-01-26T20:04:23.540Z,961.3
2017-01-26T20:06:36.598Z,961.32
2017-01-26T20:08:45.803Z,961.28
2017-01-26T20:10:58.402Z,961.3
2017-01-26T20:13:12.024Z,961.28
2017-01-26T20:15:25.176Z,961.28
2017-01-26T20:17:38.559Z,961.27
2017-01-26T20:19:46.295Z,961.31
2017-01-26T20:22:00.586Z,961.29
2017-01-26T20:24:13.869Z,961.24
2017-01-26T20:26:21.369Z,961.21
2017-01-26T20:28:28.947Z,961.15
2017-01-26T20:30:44.498Z,961.12
2017-01-26T20:32:57.188Z,961.06
2017-01-26T20:35:11.700Z,961.02
2017-01-26T20:37:25.426Z,961.03
2017-01-26T20:39:40.372Z,961.09
2017-01-26T20:41:54.409Z,961.08
2017-01-26T20:44:07.272Z,961.13
2017-01-26T20:46:14.610Z,961.1
2017-01-26T20:48:26.914Z,961.12
2017-01-26T20:50:29.382Z,961.17
2017-01-26T20:52:42.253Z,961.14
2017-01-26T20:54:55.084Z,961.17
2017-01-26T20:57:02.476Z,961.21
2017-01-26T20:59:14.844Z,961.2
2017-01-26T21:01:27.108Z,961.22
2017-01-26T21:03:39.522Z,961.13
2017-01-26T21:05:51.926Z,961.18
2017-01-26T21:08:04.291Z,961.19
2017-01-26T21:10:16.492Z,961.23
2017-01-26T21:12:28.694Z,961.26
2017-01-26T21:14:41.241Z,961.25
2017-01-26T21:16:48.570Z,961.27
2017-01-26T21:19:01.044Z,961.27
2017-01-26T21:21:13.596Z,961.29
2017-01-26T21:23:26.061Z,961.3
2017-01-26T21:25:38.922Z,961.35
2017-01-26T21:27:51.612Z,961.34
2017-01-26T21:30:04.028Z,961.28
2017-01-26T21:32:16.320Z,961.28
2017-01-26T21:34:28.529Z,961.27
2017-01-26T21:36:35.800Z,961.33
2017-01-26T21:38:48.030Z,961.32
2017-01-26T21:41:00.496Z,961.32
2017-01-26T21:43:13.032Z,961.33
2017-01-26T21:45:25.783Z,961.33
2017-01-26T21:47:38.225Z,961.28
2017-01-26T21:49:50.487Z,961.34
2017-01-26T21:52:02.894Z,961.32
2017-01-26T21:54:15.436Z,961.4
2017-01-26T21:56:27.685Z,961.39
2017-01-26T21:58:39.985Z,961.35
2017-01-26T22:00:47.391Z,961.32
2017-01-26T22:02:59.837Z,961.3
2017-01-26T22:05:12.106Z,961.25
2017-01-26T22:07:24.356Z,961.26
2017-01-26T22:09:36.534Z,961.29
2017-01-26T22:11:43.876Z,961.25
2017-01-26T22:13:56.159Z,961.28
2017-01-26T22:16:08.481Z,961.31
2017-01-26T22:18:20.717Z,961.3
2017-01-26T22:20:33.037Z,961.26
2017-01-26T22:22:45.384Z,961.26
2017-01-26T22:24:57.809Z,961.31
2017-01-26T22:27:10.018Z,961.31
2017-01-26T22:29:22.237Z,961.37
2017-01-26T22:31:37.086Z,961.35
2017-01-26T22:33:44.404Z,961.32
2017-01-26T22:35:57.494Z,961.32
2017-01-26T22:38:10.152Z,961.3
2017-01-26T22:40:22.536Z,961.35
2017-01-26T22:42:34.853Z,961.39
2017-01-26T22:44:52.879Z,961.37
2017-01-26T22:47:20.598Z,961.41
2017-01-26T22:49:50.835Z,961.47
2017-01-26T22:52:10.723Z,961.4
2017-01-26T22:54:18.202Z,961.41
2017-01-26T22:56:30.011Z,961.38
2017-01-26T22:58:42.470Z,961.4
2017-01-26T23:01:06.702Z,961.42
2017-01-26T23:03:40.290Z,961.43
2017-01-26T23:06:13.860Z,961.45
2017-01-26T23:08:46.700Z,961.48
2017-01-26T23:11:20.268Z,961.44
2017-01-26T23:13:52.517Z,961.47
2017-01-26T23:16:25.478Z,961.45
2017-01-26T23:18:59.106Z,961.42
2017-01-26T23:21:32.357Z,961.45
2017-01-26T23:24:03.799Z,961.46
2017-01-26T23:26:38.055Z,961.46
2017-01-26T23:29:12.615Z,961.5
2017-01-26T23:31:46.701Z,961.47
2017-01-26T23:34:20.212Z,961.44
2017-01-26T23:36:41.290Z,961.44
2017-01-26T23:38:58.320Z,961.38
2017-01-26T23:41:12.076Z,961.44
2017-01-26T23:43:25.917Z,961.49
2017-01-26T23:45:37.459Z,961.48
2017-01-26T23:47:53.245Z,961.45
2017-01-26T23:50:07.924Z,961.45
2017-01-26T23:52:25.571Z,961.46
2017-01-26T23:54:40.686Z,961.4
2017-01-26T23:56:55.860Z,961.38
2017-01-26T23:59:14.001Z,961.39
